Colton, Texas
Current Conditions -  °F | °C
As of 7:53 AM on Thursday 27 Nov 2014 (Local Time) from KAUS Reporting Station
Clear Clear  
Wind Chill: 39°   Ceiling: Unl
Heat Index: 45°   Visibility: 10mi
Dew Point: 35°   Wind: 13mph
Humidity: 68%   Direction: 10°N
Pressure: 30.5"   Gusts: NA
Location:  30.1791°N, 97.7294°W
Report Text: KAUS 271353Z 01011KT 10SM CLR 07/02 A3050 RMK AO2 SLP328 T00720017
Loading
Personal Weather Stations






























Interactive Weather Map New forecast layout! Learn more

10-Day Weather Forecast

Advertisements
Track Severe Weather on mobile